createdAt,value
2022-08-11T00:01:27.351Z,99533.31
2022-08-11T00:04:14.355Z,99536.97
2022-08-11T00:07:02.527Z,99524.47
2022-08-11T00:09:47.726Z,99531.94
2022-08-11T00:12:32.980Z,99523.16
2022-08-11T00:15:17.755Z,99526.28
2022-08-11T00:18:03.561Z,99520.56
2022-08-11T00:20:48.337Z,99530.13
2022-08-11T00:23:33.850Z,99526.75
2022-08-11T00:26:21.340Z,99526.44
2022-08-11T00:29:11.266Z,99532.16
2022-08-11T00:32:01.548Z,99534.16
2022-08-11T00:34:47.646Z,99523.53
2022-08-11T00:37:34.229Z,99522.44
2022-08-11T00:40:42.076Z,99521.34
2022-08-11T00:43:49.914Z,99540.19
2022-08-11T00:46:42.023Z,99532.09
2022-08-11T00:50:04.347Z,99538.75
2022-08-11T00:53:14.139Z,99535.03
2022-08-11T00:56:24.558Z,99530.72
2022-08-11T00:59:34.978Z,99525.16
2022-08-11T01:02:42.828Z,99524.81
2022-08-11T01:05:55.009Z,99515.94
2022-08-11T01:08:55.448Z,99524.09
2022-08-11T01:12:00.116Z,99517.53
2022-08-11T01:15:00.398Z,99524.50
2022-08-11T01:18:23.174Z,99519.78
2022-08-11T01:21:41.082Z,99515.34
2022-08-11T01:24:42.008Z,99516.25
2022-08-11T01:28:00.739Z,99516.72
2022-08-11T01:31:21.263Z,99522.84
2022-08-11T01:34:20.444Z,99518.94
2022-08-11T01:37:37.330Z,99513.44
2022-08-11T01:40:31.485Z,99512.09
2022-08-11T01:43:44.148Z,99511.00
2022-08-11T01:46:39.224Z,99513.28
2022-08-11T01:50:07.712Z,99510.84
2022-08-11T01:53:00.783Z,99506.34
2022-08-11T01:55:48.479Z,99508.66
2022-08-11T01:58:44.253Z,99506.28
2022-08-11T02:01:36.108Z,99503.38
2022-08-11T02:04:47.106Z,99506.97
2022-08-11T02:08:02.549Z,99509.25
2022-08-11T02:11:35.563Z,99507.59
2022-08-11T02:14:53.606Z,99506.28
2022-08-11T02:17:58.891Z,99509.53
2022-08-11T02:21:25.858Z,99505.41
2022-08-11T02:24:34.113Z,99505.06
2022-08-11T02:27:26.694Z,99509.16
2022-08-11T02:30:15.831Z,99504.97
2022-08-11T02:33:36.628Z,99507.00
2022-08-11T02:36:32.913Z,99506.69
2022-08-11T02:39:21.039Z,99515.22
2022-08-11T02:42:35.287Z,99506.69
2022-08-11T02:45:49.474Z,99502.31
2022-08-11T02:49:00.556Z,99499.72
2022-08-11T02:52:03.949Z,99506.94
2022-08-11T02:54:48.640Z,99511.31
2022-08-11T02:57:41.171Z,99508.94
2022-08-11T03:00:26.853Z,99514.59
2022-08-11T03:03:17.747Z,99515.84
2022-08-11T03:06:07.667Z,99516.84
2022-08-11T03:09:21.806Z,99515.84
2022-08-11T03:12:36.114Z,99519.19
2022-08-11T03:15:50.358Z,99515.03
2022-08-11T03:18:47.060Z,99509.41
2022-08-11T03:22:01.159Z,99510.19
2022-08-11T03:24:58.415Z,99504.00
2022-08-11T03:28:02.961Z,99511.31
2022-08-11T03:31:15.683Z,99513.44
2022-08-11T03:34:13.281Z,99515.00
2022-08-11T03:37:17.881Z,99517.09
2022-08-11T03:40:38.094Z,99525.38
2022-08-11T03:43:45.600Z,99527.78
2022-08-11T03:46:44.898Z,99532.34
2022-08-11T03:50:12.847Z,99537.63
2022-08-11T03:53:27.707Z,99532.91
2022-08-11T03:56:24.834Z,99539.47
2022-08-11T03:59:47.508Z,99540.44
2022-08-11T04:02:38.807Z,99533.84
2022-08-11T04:06:03.933Z,99541.16
2022-08-11T04:09:27.225Z,99546.22
2022-08-11T04:12:36.667Z,99532.34
2022-08-11T04:16:11.642Z,99544.19
2022-08-11T04:19:18.790Z,99526.25
2022-08-11T04:22:34.919Z,99527.91
2022-08-11T04:25:58.125Z,99525.09
2022-08-11T04:29:36.184Z,99525.44
2022-08-11T04:33:09.266Z,99529.75
2022-08-11T04:36:11.386Z,99530.84
2022-08-11T04:39:25.557Z,99523.59
2022-08-11T04:43:06.706Z,99519.47
2022-08-11T04:46:00.844Z,99522.88
2022-08-11T04:49:25.552Z,99512.47
2022-08-11T04:53:02.660Z,99520.41
2022-08-11T04:56:32.968Z,99516.94
2022-08-11T05:00:17.925Z,99523.56
2022-08-11T05:03:14.946Z,99525.00
2022-08-11T05:06:15.612Z,99522.13
2022-08-11T05:09:00.835Z,99521.88
2022-08-11T05:12:01.593Z,99518.34
2022-08-11T05:15:12.899Z,99523.38
2022-08-11T05:18:25.555Z,99524.50
2022-08-11T05:21:33.884Z,99523.50
2022-08-11T05:26:44.211Z,99509.28
2022-08-11T05:29:19.289Z,99514.53
2022-08-11T05:32:23.392Z,99514.97
2022-08-11T05:35:10.912Z,99514.47
2022-08-11T05:38:43.188Z,99513.75
2022-08-11T05:41:49.691Z,99521.88
2022-08-11T05:44:56.271Z,99518.13
2022-08-11T05:48:00.725Z,99531.34
2022-08-11T05:51:16.611Z,99535.81
2022-08-11T05:54:28.347Z,99525.47
2022-08-11T05:57:49.825Z,99527.53
2022-08-11T06:00:28.693Z,99526.75
2022-08-11T06:03:28.178Z,99528.00
2022-08-11T06:06:13.439Z,99534.00
2022-08-11T06:09:00.458Z,99523.03
2022-08-11T06:11:45.767Z,99520.44
2022-08-11T06:14:33.733Z,99514.47
2022-08-11T06:17:24.618Z,99518.38
2022-08-11T06:20:11.693Z,99509.28
2022-08-11T06:23:04.913Z,99511.91
2022-08-11T06:25:52.123Z,99510.63
2022-08-11T06:28:39.341Z,99512.94
2022-08-11T06:31:25.200Z,99519.72
2022-08-11T06:34:38.357Z,99521.31
2022-08-11T06:37:44.779Z,99502.81
2022-08-11T06:41:06.207Z,99504.63
2022-08-11T06:44:15.812Z,99510.09
2022-08-11T06:47:08.213Z,99499.69
2022-08-11T06:50:15.863Z,99510.09
2022-08-11T06:53:02.942Z,99499.13
2022-08-11T06:56:07.795Z,99495.66
2022-08-11T06:59:11.786Z,99499.28
2022-08-11T07:02:16.479Z,99495.72
2022-08-11T07:05:10.275Z,99493.13
2022-08-11T07:08:34.001Z,99495.19
2022-08-11T07:11:48.771Z,99497.75
2022-08-11T07:14:52.570Z,99498.06
2022-08-11T07:17:49.036Z,99498.00
2022-08-11T07:20:57.436Z,99510.06
2022-08-11T07:24:05.331Z,99498.09
2022-08-11T07:27:13.236Z,99497.75
2022-08-11T07:30:02.183Z,99501.50
2022-08-11T07:32:53.519Z,99492.06
2022-08-11T07:35:45.533Z,99504.44
2022-08-11T07:38:43.538Z,99504.28
2022-08-11T07:41:34.305Z,99507.25
2022-08-11T07:44:20.960Z,99511.88
2022-08-11T07:47:24.376Z,99513.53
2022-08-11T07:50:29.583Z,99522.06
2022-08-11T07:53:18.505Z,99534.78
2022-08-11T07:56:07.491Z,99535.59
2022-08-11T07:59:13.176Z,99539.63
2022-08-11T08:02:18.795Z,99541.72
2022-08-11T08:05:24.790Z,99536.63
2022-08-11T08:08:29.151Z,99517.97
2022-08-11T08:11:33.457Z,99517.72
2022-08-11T08:14:37.652Z,99534.72
2022-08-11T08:17:41.706Z,99531.69
2022-08-11T08:20:30.631Z,99517.72
2022-08-11T08:23:17.211Z,99534.69
2022-08-11T08:26:28.618Z,99537.47
2022-08-11T08:29:32.157Z,99523.88
2022-08-11T08:32:19.120Z,99518.00
2022-08-11T08:35:04.781Z,99517.13
2022-08-11T08:37:51.455Z,99501.06
2022-08-11T08:40:40.735Z,99513.91
2022-08-11T08:43:26.309Z,99517.94
2022-08-11T08:46:13.251Z,99504.47
2022-08-11T08:49:01.784Z,99486.75
2022-08-11T08:52:01.347Z,99477.28
2022-08-11T08:55:02.547Z,99482.09
2022-08-11T08:57:48.863Z,99491.69
2022-08-11T09:00:44.348Z,99486.72
2022-08-11T09:04:04.158Z,99480.63
2022-08-11T09:06:42.678Z,99467.72
2022-08-11T09:09:28.807Z,99464.16
2022-08-11T09:12:14.964Z,99464.50
2022-08-11T09:15:03.649Z,99475.44
2022-08-11T09:17:52.854Z,99481.22
2022-08-11T09:20:38.522Z,99475.47
2022-08-11T09:27:00.476Z,99485.56
2022-08-11T09:29:46.600Z,99484.94
2022-08-11T09:32:33.540Z,99488.13
2022-08-11T09:35:21.705Z,99498.97
2022-08-11T09:38:28.252Z,99490.22
2022-08-11T09:41:14.277Z,99494.84
2022-08-11T09:44:19.369Z,99495.16
2022-08-11T09:47:07.551Z,99502.94
2022-08-11T09:49:59.531Z,99504.13
2022-08-11T09:53:03.826Z,99512.94
2022-08-11T09:55:51.560Z,99502.63
2022-08-11T09:58:42.340Z,99502.13
2022-08-11T10:01:31.935Z,99493.41
2022-08-11T10:04:34.158Z,99496.66
2022-08-11T10:07:19.984Z,99493.06
2022-08-11T10:10:06.480Z,99499.50
2022-08-11T10:13:03.725Z,99509.03
2022-08-11T10:16:00.156Z,99514.09
2022-08-11T10:18:55.378Z,99506.38
2022-08-11T10:22:11.320Z,99518.00
2022-08-11T10:25:19.581Z,99526.66
2022-08-11T10:28:17.036Z,99523.06
2022-08-11T10:31:45.221Z,99521.78
2022-08-11T10:34:37.805Z,99532.78
2022-08-11T10:37:25.696Z,99537.41
2022-08-11T10:40:32.135Z,99536.25
2022-08-11T10:44:01.362Z,99537.44
2022-08-11T10:46:42.313Z,99541.13
2022-08-11T10:49:27.982Z,99535.88
2022-08-11T10:52:31.980Z,99528.22
2022-08-11T10:55:35.884Z,99530.16
2022-08-11T10:58:41.451Z,99529.94
2022-08-11T11:01:32.000Z,99530.22
2022-08-11T11:04:22.949Z,99536.03
2022-08-11T11:07:13.110Z,99532.63
2022-08-11T11:10:01.817Z,99531.13
2022-08-11T11:13:13.120Z,99530.22
2022-08-11T11:16:16.897Z,99531.69
2022-08-11T11:19:08.212Z,99522.84
2022-08-11T11:22:15.172Z,99525.34
2022-08-11T11:25:24.570Z,99512.44
2022-08-11T11:28:27.940Z,99506.44
2022-08-11T11:31:33.504Z,99493.38
2022-08-11T11:34:57.762Z,99502.31
2022-08-11T11:38:03.646Z,99492.50
2022-08-11T11:41:10.353Z,99485.75
2022-08-11T11:43:56.750Z,99492.94
2022-08-11T11:46:44.721Z,99503.81
2022-08-11T11:49:32.049Z,99500.13
2022-08-11T11:52:19.938Z,99501.59
2022-08-11T11:55:06.494Z,99492.31
2022-08-11T11:58:11.767Z,99486.03
2022-08-11T12:01:16.150Z,99486.13
2022-08-11T12:04:05.800Z,99481.75
2022-08-11T12:07:11.799Z,99482.03
2022-08-11T12:09:57.917Z,99478.47
2022-08-11T12:13:02.877Z,99477.59
2022-08-11T12:16:31.969Z,99470.06
2022-08-11T12:18:58.414Z,99470.94
2022-08-11T12:22:02.869Z,99466.22
2022-08-11T12:25:06.764Z,99473.19
2022-08-11T12:27:54.955Z,99473.41
2022-08-11T12:30:40.596Z,99477.72
2022-08-11T12:33:26.895Z,99468.50
2022-08-11T12:36:15.777Z,99476.19
2022-08-11T12:39:02.649Z,99485.25
2022-08-11T12:42:30.260Z,99478.28
2022-08-11T12:45:27.500Z,99460.78
2022-08-11T12:49:00.881Z,99464.03
2022-08-11T12:52:13.169Z,99453.50
2022-08-11T12:55:13.432Z,99465.16
2022-08-11T12:58:17.774Z,99472.91
2022-08-11T13:01:21.054Z,99476.19
2022-08-11T13:04:24.444Z,99465.81
2022-08-11T13:07:09.821Z,99477.69
2022-08-11T13:09:55.903Z,99478.34
2022-08-11T13:12:48.033Z,99488.19
2022-08-11T13:15:36.447Z,99481.28
2022-08-11T13:18:22.575Z,99493.06
2022-08-11T13:21:09.158Z,99489.16
2022-08-11T13:24:01.885Z,99497.06
2022-08-11T13:26:50.564Z,99486.66
2022-08-11T13:29:36.107Z,99481.22
2022-08-11T13:32:25.699Z,99470.06
2022-08-11T13:35:16.513Z,99484.13
2022-08-11T13:38:19.561Z,99484.03
2022-08-11T13:41:29.275Z,99472.28
2022-08-11T13:44:21.603Z,99462.88
2022-08-11T13:47:12.983Z,99470.00
2022-08-11T13:49:58.255Z,99470.59
2022-08-11T13:52:44.129Z,99472.97
2022-08-11T13:55:45.087Z,99489.13
2022-08-11T13:58:39.564Z,99498.44
2022-08-11T14:02:03.529Z,99499.09
2022-08-11T14:04:45.911Z,99502.34
2022-08-11T14:07:37.307Z,99492.72
2022-08-11T14:10:28.591Z,99489.94
2022-08-11T14:13:42.256Z,99497.28
2022-08-11T14:16:33.966Z,99520.81
2022-08-11T14:19:22.238Z,99512.03
2022-08-11T14:22:08.728Z,99501.66
2022-08-11T14:24:54.626Z,99504.78
2022-08-11T14:28:41.792Z,99501.69
2022-08-11T14:31:01.322Z,99502.25
2022-08-11T14:34:00.045Z,99512.44
2022-08-11T14:36:51.657Z,99516.06
2022-08-11T14:39:45.959Z,99501.22
2022-08-11T14:42:49.350Z,99495.00
2022-08-11T14:45:54.120Z,99499.19
2022-08-11T14:48:43.968Z,99511.97
2022-08-11T14:51:29.800Z,99517.47
2022-08-11T14:54:35.025Z,99520.84
2022-08-11T14:57:55.044Z,99503.41
2022-08-11T15:00:27.689Z,99526.09
2022-08-11T15:03:14.887Z,99537.31
2022-08-11T15:06:01.769Z,99521.13
2022-08-11T15:08:56.518Z,99510.97
2022-08-11T15:12:01.841Z,99520.88
2022-08-11T15:15:07.419Z,99521.38
2022-08-11T15:17:55.334Z,99516.97
2022-08-11T15:20:59.678Z,99509.91
2022-08-11T15:24:03.107Z,99513.28
2022-08-11T15:27:08.337Z,99533.38
2022-08-11T15:30:20.888Z,99538.31
2022-08-11T15:33:38.604Z,99542.75
2022-08-11T15:36:44.408Z,99547.19
2022-08-11T15:39:37.651Z,99552.41
2022-08-11T15:42:41.578Z,99559.19
2022-08-11T15:45:49.438Z,99562.59
2022-08-11T15:48:42.927Z,99568.31
2022-08-11T15:51:42.345Z,99552.66
2022-08-11T15:54:30.921Z,99543.00
2022-08-11T15:57:40.046Z,99536.47
2022-08-11T16:00:44.107Z,99529.94
2022-08-11T16:04:07.619Z,99525.00
2022-08-11T16:07:12.888Z,99516.31
2022-08-11T16:10:07.030Z,99508.22
2022-08-11T16:13:14.581Z,99515.28
2022-08-11T16:16:14.264Z,99511.63
2022-08-11T16:19:02.570Z,99510.09
2022-08-11T16:21:51.909Z,99514.75
2022-08-11T16:27:05.523Z,99512.41
2022-08-11T16:27:58.203Z,99515.50
2022-08-11T16:30:45.804Z,99511.56
2022-08-11T16:33:49.749Z,99511.84
2022-08-11T16:36:54.233Z,99511.03
2022-08-11T16:39:40.303Z,99513.94
2022-08-11T16:43:05.250Z,99510.03
2022-08-11T16:46:12.444Z,99512.41
2022-08-11T16:49:34.799Z,99513.72
2022-08-11T16:52:22.559Z,99506.16
2022-08-11T16:55:09.067Z,99500.41
2022-08-11T16:58:13.966Z,99497.59
2022-08-11T17:01:01.433Z,99503.34
2022-08-11T17:04:11.820Z,99499.44
2022-08-11T17:07:24.011Z,99503.88
2022-08-11T17:10:54.769Z,99506.75
2022-08-11T17:13:55.089Z,99509.91
2022-08-11T17:16:41.555Z,99516.44
2022-08-11T17:20:38.683Z,99512.25
2022-08-11T17:22:56.835Z,99505.22
2022-08-11T17:25:59.277Z,99498.22
2022-08-11T17:28:56.871Z,99489.06
2022-08-11T17:32:01.280Z,99505.53
2022-08-11T17:35:07.957Z,99514.91
2022-08-11T17:37:55.653Z,99518.84
2022-08-11T17:41:18.441Z,99512.84
2022-08-11T17:44:27.793Z,99502.94
2022-08-11T17:47:32.426Z,99496.94
2022-08-11T17:50:18.624Z,99498.00
2022-08-11T17:53:23.380Z,99493.03
2022-08-11T17:56:27.854Z,99490.44
2022-08-11T17:59:32.816Z,99487.31
2022-08-11T18:02:55.248Z,99485.00
2022-08-11T18:05:43.912Z,99483.13
2022-08-11T18:08:51.322Z,99488.34
2022-08-11T18:12:10.235Z,99480.53
2022-08-11T18:15:15.684Z,99484.19
2022-08-11T18:18:20.675Z,99473.25
2022-08-11T18:21:24.820Z,99471.94
2022-08-11T18:24:34.481Z,99468.28
2022-08-11T18:27:40.075Z,99478.22
2022-08-11T18:30:44.542Z,99478.22
2022-08-11T18:34:10.767Z,99478.22
2022-08-11T18:37:29.068Z,99478.72
2022-08-11T18:40:40.042Z,99479.75
2022-08-11T18:43:50.137Z,99469.59
2022-08-11T18:46:58.166Z,99471.44
2022-08-11T18:50:05.371Z,99472.72
2022-08-11T18:53:11.992Z,99467.28
2022-08-11T18:56:17.087Z,99463.38
2022-08-11T18:59:24.611Z,99467.28
2022-08-11T19:02:30.884Z,99467.81
2022-08-11T19:06:32.175Z,99477.72
2022-08-11T19:09:06.928Z,99484.25
2022-08-11T19:12:13.462Z,99476.94
2022-08-11T19:15:18.783Z,99479.53
2022-08-11T19:18:25.186Z,99483.97
2022-08-11T19:21:30.756Z,99490.22
2022-08-11T19:24:37.146Z,99486.84
2022-08-11T19:27:44.671Z,99486.84
2022-08-11T19:30:50.579Z,99482.91
2022-08-11T19:34:02.878Z,99488.13
2022-08-11T19:37:14.989Z,99483.47
2022-08-11T19:40:28.076Z,99486.59
2022-08-11T19:43:32.955Z,99491.28
2022-08-11T19:46:39.785Z,99498.06
2022-08-11T19:49:44.780Z,99482.41
2022-08-11T19:52:50.053Z,99483.47
2022-08-11T19:55:54.229Z,99477.47
2022-08-11T19:58:58.923Z,99485.03
2022-08-11T20:02:14.025Z,99483.47
2022-08-11T20:05:18.630Z,99495.44
2022-08-11T20:08:24.479Z,99490.22
2022-08-11T20:11:30.282Z,99489.44
2022-08-11T20:14:36.115Z,99493.91
2022-08-11T20:17:44.114Z,99495.72
2022-08-11T20:20:49.269Z,99497.25
2022-08-11T20:23:54.112Z,99502.22
2022-08-11T20:26:57.572Z,99504.06
2022-08-11T20:30:02.127Z,99506.66
2022-08-11T20:33:06.048Z,99500.41
2022-08-11T20:36:10.945Z,99494.41
2022-08-11T20:39:17.075Z,99494.41
2022-08-11T20:42:23.632Z,99495.94
2022-08-11T20:45:32.991Z,99499.34
2022-08-11T20:48:38.721Z,99496.50
2022-08-11T20:51:43.669Z,99494.69
2022-08-11T20:54:49.076Z,99497.50
2022-08-11T20:58:04.174Z,99494.66
2022-08-11T21:01:20.322Z,99493.84
2022-08-11T21:04:28.251Z,99502.47
2022-08-11T21:07:34.371Z,99494.63
2022-08-11T21:10:39.573Z,99494.13
2022-08-11T21:13:52.032Z,99496.72
2022-08-11T21:16:56.704Z,99495.66
2022-08-11T21:20:07.806Z,99494.88
2022-08-11T21:23:28.445Z,99489.16
2022-08-11T21:26:35.783Z,99490.72
2022-08-11T21:29:41.320Z,99482.13
2022-08-11T21:32:45.223Z,99485.75
2022-08-11T21:35:50.786Z,99477.44
2022-08-11T21:38:55.705Z,99483.16
2022-08-11T21:41:59.168Z,99486.06
2022-08-11T21:45:03.488Z,99480.59
2022-08-11T21:48:08.505Z,99478.25
2022-08-11T21:51:11.945Z,99488.13
2022-08-11T21:54:17.775Z,99478.78
2022-08-11T21:57:23.067Z,99484.50
2022-08-11T22:00:26.614Z,99487.63
2022-08-11T22:03:31.132Z,99480.84
2022-08-11T22:06:50.626Z,99486.56
2022-08-11T22:09:55.037Z,99477.72
2022-08-11T22:12:58.397Z,99478.22
2022-08-11T22:16:02.379Z,99465.72
2022-08-11T22:19:09.054Z,99474.56
2022-08-11T22:22:15.820Z,99472.22
2022-08-11T22:25:22.348Z,99467.31
2022-08-11T22:28:26.976Z,99467.31
2022-08-11T22:31:31.554Z,99458.19
2022-08-11T22:34:40.661Z,99458.44
2022-08-11T22:37:57.634Z,99457.16
2022-08-11T22:41:01.741Z,99449.59
2022-08-11T22:44:05.445Z,99445.44
2022-08-11T22:47:10.125Z,99442.31
2022-08-11T22:50:16.063Z,99443.84
2022-08-11T22:53:20.056Z,99439.19
2022-08-11T22:56:32.991Z,99434.75
2022-08-11T22:59:38.036Z,99436.88
2022-08-11T23:02:44.055Z,99428.56
2022-08-11T23:05:48.147Z,99426.22
2022-08-11T23:08:52.571Z,99427.03
2022-08-11T23:12:06.128Z,99415.03
2022-08-11T23:15:13.011Z,99406.72
2022-08-11T23:18:17.543Z,99412.47
2022-08-11T23:21:21.490Z,99417.94
2022-08-11T23:24:26.165Z,99423.94
2022-08-11T23:27:31.552Z,99416.38
2022-08-11T23:30:35.633Z,99424.97
2022-08-11T23:33:42.253Z,99440.31
2022-08-11T23:36:47.484Z,99431.75
2022-08-11T23:39:51.873Z,99439.78
2022-08-11T23:42:58.926Z,99437.44
2022-08-11T23:46:02.309Z,99446.56
2022-08-11T23:49:11.263Z,99443.16
2022-08-11T23:52:15.579Z,99446.81
2022-08-11T23:55:20.273Z,99449.41
2022-08-11T23:58:24.838Z,99455.16
